Terminal Aerodrome Forecast
Issued by NWS

Home | Current Version | Previous Version | Text Only | Print | Product List | Glossary On
Versions: 1 2 3 4 5 6 7 8 9 10 11 12 13 14
000
FTUS45 KRIW 272320
TAFLND
TAF
KLND 272320Z 2800/2824 24020G32KT P6SM FEW120
     FM280400 27011KT P6SM FEW120
     FM281500 28005KT P6SM FEW090=

USA.gov is the U.S. government's official web portal to all federal, state and local government web resources and services.